sensor_id;sensor_type;location;lat;lon;timestamp;temperature;humidity
2935;DHT22;2462;51.456;7.248;2022-09-09T00:04:59;17.20;99.90
2935;DHT22;2462;51.456;7.248;2022-09-09T00:07:43;17.20;99.90
2935;DHT22;2462;51.456;7.248;2022-09-09T00:10:29;17.20;99.90
2935;DHT22;2462;51.456;7.248;2022-09-09T00:15:32;17.20;99.90
2935;DHT22;2462;51.456;7.248;2022-09-09T00:21:15;17.20;99.90
2935;DHT22;2462;51.456;7.248;2022-09-09T00:29:19;17.20;99.90
2935;DHT22;2462;51.456;7.248;2022-09-09T00:31:48;17.10;99.90
2935;DHT22;2462;51.456;7.248;2022-09-09T00:34:23;17.10;99.90
2935;DHT22;2462;51.456;7.248;2022-09-09T00:36:51;17.10;99.90
2935;DHT22;2462;51.456;7.248;2022-09-09T00:39:39;17.10;99.90
2935;DHT22;2462;51.456;7.248;2022-09-09T00:42:16;17.10;99.90
2935;DHT22;2462;51.456;7.248;2022-09-09T00:45:02;17.10;99.90
2935;DHT22;2462;51.456;7.248;2022-09-09T00:50:05;17.00;99.90
2935;DHT22;2462;51.456;7.248;2022-09-09T00:55:25;17.00;99.90
2935;DHT22;2462;51.456;7.248;2022-09-09T00:57:53;17.00;99.90
2935;DHT22;2462;51.456;7.248;2022-09-09T01:00:27;17.00;99.90
2935;DHT22;2462;51.456;7.248;2022-09-09T01:10:52;16.90;99.90
2935;DHT22;2462;51.456;7.248;2022-09-09T01:13:35;16.90;99.90
2935;DHT22;2462;51.456;7.248;2022-09-09T01:16:04;16.90;99.90
2935;DHT22;2462;51.456;7.248;2022-09-09T01:18:47;16.90;99.90
2935;DHT22;2462;51.456;7.248;2022-09-09T01:24:07;16.80;99.90
2935;DHT22;2462;51.456;7.248;2022-09-09T01:26:41;16.80;99.90
2935;DHT22;2462;51.456;7.248;2022-09-09T01:29:14;16.80;99.90
2935;DHT22;2462;51.456;7.248;2022-09-09T01:31:51;16.90;99.90
2935;DHT22;2462;51.456;7.248;2022-09-09T01:34:17;16.80;99.90
2935;DHT22;2462;51.456;7.248;2022-09-09T01:37:00;16.80;99.90
2935;DHT22;2462;51.456;7.248;2022-09-09T01:39:27;16.80;99.90
2935;DHT22;2462;51.456;7.248;2022-09-09T01:41:54;16.80;99.90
2935;DHT22;2462;51.456;7.248;2022-09-09T01:44:21;16.80;99.90
2935;DHT22;2462;51.456;7.248;2022-09-09T01:46:47;16.80;99.90
2935;DHT22;2462;51.456;7.248;2022-09-09T01:49:13;16.80;99.90
2935;DHT22;2462;51.456;7.248;2022-09-09T01:51:40;16.80;99.90
2935;DHT22;2462;51.456;7.248;2022-09-09T01:54:07;16.80;99.90
2935;DHT22;2462;51.456;7.248;2022-09-09T02:08:09;16.80;99.90
2935;DHT22;2462;51.456;7.248;2022-09-09T02:10:50;16.80;99.90
2935;DHT22;2462;51.456;7.248;2022-09-09T02:13:20;16.80;99.90
2935;DHT22;2462;51.456;7.248;2022-09-09T02:15:57;16.80;99.90
2935;DHT22;2462;51.456;7.248;2022-09-09T02:18:40;16.80;99.90
2935;DHT22;2462;51.456;7.248;2022-09-09T02:21:09;16.80;99.90
2935;DHT22;2462;51.456;7.248;2022-09-09T02:23:37;16.80;99.90
2935;DHT22;2462;51.456;7.248;2022-09-09T02:26:05;16.80;99.90
2935;DHT22;2462;51.456;7.248;2022-09-09T02:28:33;16.80;99.90
2935;DHT22;2462;51.456;7.248;2022-09-09T02:31:00;16.80;99.90
2935;DHT22;2462;51.456;7.248;2022-09-09T02:33:28;16.80;99.90
2935;DHT22;2462;51.456;7.248;2022-09-09T02:35:56;16.80;99.90
2935;DHT22;2462;51.456;7.248;2022-09-09T02:38:29;16.70;99.90
2935;DHT22;2462;51.456;7.248;2022-09-09T02:40:57;16.70;99.90
2935;DHT22;2462;51.456;7.248;2022-09-09T02:43:23;16.80;99.90
2935;DHT22;2462;51.456;7.248;2022-09-09T02:48:31;16.70;99.90
2935;DHT22;2462;51.456;7.248;2022-09-09T02:51:10;16.70;99.90
2935;DHT22;2462;51.456;7.248;2022-09-09T02:56:33;16.70;99.90
2935;DHT22;2462;51.456;7.248;2022-09-09T02:59:03;16.70;99.90
2935;DHT22;2462;51.456;7.248;2022-09-09T03:01:29;16.70;99.90
2935;DHT22;2462;51.456;7.248;2022-09-09T03:03:55;16.70;99.90
2935;DHT22;2462;51.456;7.248;2022-09-09T03:06:20;16.70;99.90
2935;DHT22;2462;51.456;7.248;2022-09-09T03:08:47;16.70;99.90
2935;DHT22;2462;51.456;7.248;2022-09-09T03:11:15;16.70;99.90
2935;DHT22;2462;51.456;7.248;2022-09-09T03:13:41;16.70;99.90
2935;DHT22;2462;51.456;7.248;2022-09-09T03:16:06;16.70;99.90
2935;DHT22;2462;51.456;7.248;2022-09-09T03:18:32;16.70;99.90
2935;DHT22;2462;51.456;7.248;2022-09-09T03:20:57;16.70;99.90
2935;DHT22;2462;51.456;7.248;2022-09-09T03:23:24;16.70;99.90
2935;DHT22;2462;51.456;7.248;2022-09-09T03:25:50;16.70;99.90
2935;DHT22;2462;51.456;7.248;2022-09-09T03:28:17;16.70;99.90
2935;DHT22;2462;51.456;7.248;2022-09-09T03:30:43;16.70;99.90
2935;DHT22;2462;51.456;7.248;2022-09-09T03:33:08;16.70;99.90
2935;DHT22;2462;51.456;7.248;2022-09-09T03:35:34;16.60;99.90
2935;DHT22;2462;51.456;7.248;2022-09-09T03:37:59;16.70;99.90
2935;DHT22;2462;51.456;7.248;2022-09-09T03:40:26;16.60;99.90
2935;DHT22;2462;51.456;7.248;2022-09-09T03:42:51;16.60;99.90
2935;DHT22;2462;51.456;7.248;2022-09-09T03:45:17;16.60;99.90
2935;DHT22;2462;51.456;7.248;2022-09-09T03:47:42;16.70;99.90
2935;DHT22;2462;51.456;7.248;2022-09-09T03:50:08;16.60;99.90
2935;DHT22;2462;51.456;7.248;2022-09-09T03:52:39;16.60;99.90
2935;DHT22;2462;51.456;7.248;2022-09-09T03:55:06;16.60;99.90
2935;DHT22;2462;51.456;7.248;2022-09-09T03:57:32;16.60;99.90
2935;DHT22;2462;51.456;7.248;2022-09-09T04:00:01;16.60;99.90
2935;DHT22;2462;51.456;7.248;2022-09-09T04:02:27;16.60;99.90
2935;DHT22;2462;51.456;7.248;2022-09-09T04:04:52;16.60;99.90
2935;DHT22;2462;51.456;7.248;2022-09-09T04:07:18;16.60;99.90
2935;DHT22;2462;51.456;7.248;2022-09-09T04:09:43;16.60;99.90
2935;DHT22;2462;51.456;7.248;2022-09-09T04:12:09;16.60;99.90
2935;DHT22;2462;51.456;7.248;2022-09-09T04:14:36;16.60;99.90
2935;DHT22;2462;51.456;7.248;2022-09-09T04:17:02;16.60;99.90
2935;DHT22;2462;51.456;7.248;2022-09-09T04:19:31;16.60;99.90
2935;DHT22;2462;51.456;7.248;2022-09-09T04:21:57;16.60;99.90
2935;DHT22;2462;51.456;7.248;2022-09-09T04:24:22;16.60;99.90
2935;DHT22;2462;51.456;7.248;2022-09-09T04:26:48;16.60;99.90
2935;DHT22;2462;51.456;7.248;2022-09-09T04:29:14;16.60;99.90
2935;DHT22;2462;51.456;7.248;2022-09-09T04:31:39;16.60;99.90
2935;DHT22;2462;51.456;7.248;2022-09-09T04:34:08;16.60;99.90
2935;DHT22;2462;51.456;7.248;2022-09-09T04:36:34;16.60;99.90
2935;DHT22;2462;51.456;7.248;2022-09-09T04:38:59;16.60;99.90
2935;DHT22;2462;51.456;7.248;2022-09-09T04:41:26;16.60;99.90
2935;DHT22;2462;51.456;7.248;2022-09-09T04:43:51;16.60;99.90
2935;DHT22;2462;51.456;7.248;2022-09-09T04:46:19;16.60;99.90
2935;DHT22;2462;51.456;7.248;2022-09-09T04:48:45;16.50;99.90
2935;DHT22;2462;51.456;7.248;2022-09-09T04:51:12;16.50;99.90
2935;DHT22;2462;51.456;7.248;2022-09-09T04:53:38;16.50;99.90
2935;DHT22;2462;51.456;7.248;2022-09-09T04:56:10;16.50;99.90
2935;DHT22;2462;51.456;7.248;2022-09-09T04:58:36;16.50;99.90
2935;DHT22;2462;51.456;7.248;2022-09-09T05:01:20;16.50;99.90
2935;DHT22;2462;51.456;7.248;2022-09-09T05:03:47;16.50;99.90
2935;DHT22;2462;51.456;7.248;2022-09-09T05:06:18;16.50;99.90
2935;DHT22;2462;51.456;7.248;2022-09-09T05:08:44;16.50;99.90
2935;DHT22;2462;51.456;7.248;2022-09-09T05:13:39;16.50;99.90
2935;DHT22;2462;51.456;7.248;2022-09-09T05:16:05;16.50;99.90
2935;DHT22;2462;51.456;7.248;2022-09-09T05:18:31;16.50;99.90
2935;DHT22;2462;51.456;7.248;2022-09-09T05:21:00;16.50;99.90
2935;DHT22;2462;51.456;7.248;2022-09-09T05:23:25;16.50;99.90
2935;DHT22;2462;51.456;7.248;2022-09-09T05:25:58;16.50;99.90
2935;DHT22;2462;51.456;7.248;2022-09-09T05:28:24;16.50;99.90
2935;DHT22;2462;51.456;7.248;2022-09-09T05:30:58;16.50;99.90
2935;DHT22;2462;51.456;7.248;2022-09-09T05:33:24;16.50;99.90
2935;DHT22;2462;51.456;7.248;2022-09-09T05:36:04;16.50;99.90
2935;DHT22;2462;51.456;7.248;2022-09-09T05:38:31;16.50;99.90
2935;DHT22;2462;51.456;7.248;2022-09-09T05:41:01;16.50;99.90
2935;DHT22;2462;51.456;7.248;2022-09-09T05:43:28;16.50;99.90
2935;DHT22;2462;51.456;7.248;2022-09-09T05:46:09;16.50;99.90
2935;DHT22;2462;51.456;7.248;2022-09-09T05:48:37;16.50;99.90
2935;DHT22;2462;51.456;7.248;2022-09-09T05:51:04;16.50;99.90
2935;DHT22;2462;51.456;7.248;2022-09-09T05:53:30;16.50;99.90
2935;DHT22;2462;51.456;7.248;2022-09-09T05:56:18;16.50;99.90
2935;DHT22;2462;51.456;7.248;2022-09-09T05:58:45;16.50;99.90
2935;DHT22;2462;51.456;7.248;2022-09-09T06:01:18;16.50;99.90
2935;DHT22;2462;51.456;7.248;2022-09-09T06:03:45;16.60;99.90
2935;DHT22;2462;51.456;7.248;2022-09-09T06:06:16;16.50;99.90
2935;DHT22;2462;51.456;7.248;2022-09-09T06:08:43;16.50;99.90
2935;DHT22;2462;51.456;7.248;2022-09-09T06:13:38;16.60;99.90
2935;DHT22;2462;51.456;7.248;2022-09-09T06:16:14;16.60;99.90
2935;DHT22;2462;51.456;7.248;2022-09-09T06:18:41;16.60;99.90
2935;DHT22;2462;51.456;7.248;2022-09-09T06:21:11;16.60;99.90
2935;DHT22;2462;51.456;7.248;2022-09-09T06:23:36;16.60;99.90
2935;DHT22;2462;51.456;7.248;2022-09-09T06:26:07;16.60;99.90
2935;DHT22;2462;51.456;7.248;2022-09-09T06:28:33;16.60;99.90
2935;DHT22;2462;51.456;7.248;2022-09-09T06:31:05;16.60;99.90
2935;DHT22;2462;51.456;7.248;2022-09-09T06:33:32;16.70;99.90
2935;DHT22;2462;51.456;7.248;2022-09-09T06:35:57;16.70;99.90
2935;DHT22;2462;51.456;7.248;2022-09-09T06:38:23;16.70;99.90
2935;DHT22;2462;51.456;7.248;2022-09-09T06:40:57;16.70;99.90
2935;DHT22;2462;51.456;7.248;2022-09-09T06:43:23;16.70;99.90
2935;DHT22;2462;51.456;7.248;2022-09-09T06:46:02;16.70;99.90
2935;DHT22;2462;51.456;7.248;2022-09-09T06:48:28;16.80;99.90
2935;DHT22;2462;51.456;7.248;2022-09-09T06:51:04;16.80;99.90
2935;DHT22;2462;51.456;7.248;2022-09-09T06:53:30;16.80;99.90
2935;DHT22;2462;51.456;7.248;2022-09-09T06:56:02;16.80;99.90
2935;DHT22;2462;51.456;7.248;2022-09-09T06:58:28;16.80;99.90
2935;DHT22;2462;51.456;7.248;2022-09-09T07:01:03;16.80;99.90
2935;DHT22;2462;51.456;7.248;2022-09-09T07:03:28;16.80;99.90
2935;DHT22;2462;51.456;7.248;2022-09-09T07:05:55;16.90;99.90
2935;DHT22;2462;51.456;7.248;2022-09-09T07:08:22;16.90;99.90
2935;DHT22;2462;51.456;7.248;2022-09-09T07:10:47;16.90;99.90
2935;DHT22;2462;51.456;7.248;2022-09-09T07:13:13;16.90;99.90
2935;DHT22;2462;51.456;7.248;2022-09-09T07:15:41;17.00;99.90
2935;DHT22;2462;51.456;7.248;2022-09-09T07:18:07;17.00;99.90
2935;DHT22;2462;51.456;7.248;2022-09-09T07:20:32;17.00;99.90
2935;DHT22;2462;51.456;7.248;2022-09-09T07:22:58;17.00;99.90
2935;DHT22;2462;51.456;7.248;2022-09-09T07:25:24;17.10;99.90
2935;DHT22;2462;51.456;7.248;2022-09-09T07:27:53;17.10;99.90
2935;DHT22;2462;51.456;7.248;2022-09-09T07:30:20;17.10;99.90
2935;DHT22;2462;51.456;7.248;2022-09-09T07:32:45;17.10;99.90
2935;DHT22;2462;51.456;7.248;2022-09-09T07:35:11;17.10;99.90
2935;DHT22;2462;51.456;7.248;2022-09-09T07:37:37;17.10;99.90
2935;DHT22;2462;51.456;7.248;2022-09-09T07:40:03;17.10;99.90
2935;DHT22;2462;51.456;7.248;2022-09-09T07:42:29;17.10;99.90
2935;DHT22;2462;51.456;7.248;2022-09-09T07:44:54;17.10;99.90
2935;DHT22;2462;51.456;7.248;2022-09-09T07:47:20;17.10;99.90
2935;DHT22;2462;51.456;7.248;2022-09-09T07:49:46;17.20;99.90
2935;DHT22;2462;51.456;7.248;2022-09-09T07:52:12;17.20;99.90
2935;DHT22;2462;51.456;7.248;2022-09-09T07:54:38;17.20;99.90
2935;DHT22;2462;51.456;7.248;2022-09-09T07:57:03;17.20;99.90
2935;DHT22;2462;51.456;7.248;2022-09-09T07:59:29;17.20;99.90
2935;DHT22;2462;51.456;7.248;2022-09-09T08:01:55;17.20;99.90
2935;DHT22;2462;51.456;7.248;2022-09-09T08:04:22;17.20;99.90
2935;DHT22;2462;51.456;7.248;2022-09-09T08:06:51;17.30;99.90
2935;DHT22;2462;51.456;7.248;2022-09-09T08:09:18;17.30;99.90
2935;DHT22;2462;51.456;7.248;2022-09-09T08:11:44;17.30;99.90
2935;DHT22;2462;51.456;7.248;2022-09-09T08:14:11;17.20;99.90
2935;DHT22;2462;51.456;7.248;2022-09-09T08:16:40;17.30;99.90
2935;DHT22;2462;51.456;7.248;2022-09-09T08:19:07;17.30;99.90
2935;DHT22;2462;51.456;7.248;2022-09-09T08:21:34;17.30;99.90
2935;DHT22;2462;51.456;7.248;2022-09-09T08:24:02;17.30;99.90
2935;DHT22;2462;51.456;7.248;2022-09-09T08:26:31;17.30;99.90
2935;DHT22;2462;51.456;7.248;2022-09-09T08:28:58;17.30;99.90
2935;DHT22;2462;51.456;7.248;2022-09-09T08:31:27;17.40;99.90
2935;DHT22;2462;51.456;7.248;2022-09-09T08:33:56;17.40;99.90
2935;DHT22;2462;51.456;7.248;2022-09-09T08:36:24;17.50;99.90
2935;DHT22;2462;51.456;7.248;2022-09-09T08:38:52;17.50;99.90
2935;DHT22;2462;51.456;7.248;2022-09-09T08:52:36;17.50;99.90
2935;DHT22;2462;51.456;7.248;2022-09-09T08:55:22;17.60;99.90
2935;DHT22;2462;51.456;7.248;2022-09-09T08:57:52;17.60;99.90
2935;DHT22;2462;51.456;7.248;2022-09-09T09:00:19;17.70;99.90
2935;DHT22;2462;51.456;7.248;2022-09-09T09:13:01;17.80;99.90
2935;DHT22;2462;51.456;7.248;2022-09-09T09:15:36;17.90;99.90
2935;DHT22;2462;51.456;7.248;2022-09-09T09:18:03;17.90;99.90
2935;DHT22;2462;51.456;7.248;2022-09-09T09:20:47;18.00;99.90
2935;DHT22;2462;51.456;7.248;2022-09-09T09:23:22;18.00;99.90
2935;DHT22;2462;51.456;7.248;2022-09-09T09:25:48;17.90;99.90
2935;DHT22;2462;51.456;7.248;2022-09-09T09:28:24;17.90;99.90
2935;DHT22;2462;51.456;7.248;2022-09-09T09:30:58;18.00;99.90
2935;DHT22;2462;51.456;7.248;2022-09-09T09:33:52;18.00;99.90
2935;DHT22;2462;51.456;7.248;2022-09-09T09:36:23;17.90;99.90
2935;DHT22;2462;51.456;7.248;2022-09-09T09:39:00;17.90;99.90
2935;DHT22;2462;51.456;7.248;2022-09-09T09:43:55;17.90;99.90
2935;DHT22;2462;51.456;7.248;2022-09-09T09:46:24;17.90;99.90
2935;DHT22;2462;51.456;7.248;2022-09-09T09:49:17;17.90;99.90
2935;DHT22;2462;51.456;7.248;2022-09-09T09:51:43;17.90;99.90
2935;DHT22;2462;51.456;7.248;2022-09-09T09:56:40;18.00;99.90
2935;DHT22;2462;51.456;7.248;2022-09-09T09:59:20;18.00;99.90
2935;DHT22;2462;51.456;7.248;2022-09-09T10:01:45;18.00;99.90
2935;DHT22;2462;51.456;7.248;2022-09-09T10:06:41;18.10;99.90
2935;DHT22;2462;51.456;7.248;2022-09-09T10:17:34;18.20;99.90
2935;DHT22;2462;51.456;7.248;2022-09-09T10:22:43;18.30;99.90
2935;DHT22;2462;51.456;7.248;2022-09-09T10:38:42;18.40;99.90
2935;DHT22;2462;51.456;7.248;2022-09-09T10:52:47;18.50;99.90
2935;DHT22;2462;51.456;7.248;2022-09-09T10:55:20;18.50;99.90
2935;DHT22;2462;51.456;7.248;2022-09-09T10:57:52;18.60;99.90
2935;DHT22;2462;51.456;7.248;2022-09-09T11:00:24;18.60;99.90
2935;DHT22;2462;51.456;7.248;2022-09-09T11:02:56;18.70;99.90
2935;DHT22;2462;51.456;7.248;2022-09-09T11:06:04;18.80;99.90
2935;DHT22;2462;51.456;7.248;2022-09-09T11:08:25;18.80;99.90
2935;DHT22;2462;51.456;7.248;2022-09-09T11:14:02;18.80;99.90
2935;DHT22;2462;51.456;7.248;2022-09-09T11:16:52;18.80;99.90
2935;DHT22;2462;51.456;7.248;2022-09-09T11:21:50;18.70;99.90
2935;DHT22;2462;51.456;7.248;2022-09-09T11:24:27;18.70;99.90
2935;DHT22;2462;51.456;7.248;2022-09-09T11:27:18;18.70;99.90
2935;DHT22;2462;51.456;7.248;2022-09-09T11:35:50;18.70;99.90
2935;DHT22;2462;51.456;7.248;2022-09-09T11:40:59;18.80;99.90
2935;DHT22;2462;51.456;7.248;2022-09-09T11:43:43;18.80;99.90
2935;DHT22;2462;51.456;7.248;2022-09-09T11:46:10;18.80;99.90
2935;DHT22;2462;51.456;7.248;2022-09-09T11:48:39;18.80;99.90
2935;DHT22;2462;51.456;7.248;2022-09-09T11:54:01;18.80;99.90
2935;DHT22;2462;51.456;7.248;2022-09-09T11:56:43;18.80;99.90
2935;DHT22;2462;51.456;7.248;2022-09-09T11:59:27;18.80;99.90
2935;DHT22;2462;51.456;7.248;2022-09-09T12:07:31;18.70;99.90
2935;DHT22;2462;51.456;7.248;2022-09-09T12:10:20;18.70;99.90
2935;DHT22;2462;51.456;7.248;2022-09-09T12:12:47;18.70;99.90
2935;DHT22;2462;51.456;7.248;2022-09-09T12:17:43;18.60;99.90
2935;DHT22;2462;51.456;7.248;2022-09-09T12:20:19;18.60;99.90
2935;DHT22;2462;51.456;7.248;2022-09-09T12:33:53;18.80;99.90
2935;DHT22;2462;51.456;7.248;2022-09-09T12:36:21;18.90;99.90
2935;DHT22;2462;51.456;7.248;2022-09-09T12:38:49;18.90;99.90
2935;DHT22;2462;51.456;7.248;2022-09-09T12:41:24;18.90;99.90
2935;DHT22;2462;51.456;7.248;2022-09-09T12:43:51;18.90;99.90
2935;DHT22;2462;51.456;7.248;2022-09-09T12:46:33;18.90;99.90
2935;DHT22;2462;51.456;7.248;2022-09-09T12:49:02;18.80;99.90
2935;DHT22;2462;51.456;7.248;2022-09-09T12:51:32;18.80;99.90
2935;DHT22;2462;51.456;7.248;2022-09-09T12:53:59;18.80;99.90
2935;DHT22;2462;51.456;7.248;2022-09-09T12:56:26;18.70;99.90
2935;DHT22;2462;51.456;7.248;2022-09-09T12:58:54;18.70;99.90
2935;DHT22;2462;51.456;7.248;2022-09-09T13:01:29;18.70;99.90
2935;DHT22;2462;51.456;7.248;2022-09-09T13:03:55;18.70;99.90
2935;DHT22;2462;51.456;7.248;2022-09-09T13:06:24;18.70;99.90
2935;DHT22;2462;51.456;7.248;2022-09-09T13:08:52;18.70;99.90
2935;DHT22;2462;51.456;7.248;2022-09-09T13:11:26;18.80;99.90
2935;DHT22;2462;51.456;7.248;2022-09-09T13:13:55;18.90;99.90
2935;DHT22;2462;51.456;7.248;2022-09-09T13:16:29;18.90;99.90
2935;DHT22;2462;51.456;7.248;2022-09-09T13:21:35;19.00;99.90
2935;DHT22;2462;51.456;7.248;2022-09-09T13:24:04;19.00;99.90
2935;DHT22;2462;51.456;7.248;2022-09-09T13:26:33;19.00;99.90
2935;DHT22;2462;51.456;7.248;2022-09-09T13:29:17;19.00;99.90
2935;DHT22;2462;51.456;7.248;2022-09-09T13:31:43;19.00;99.90
2935;DHT22;2462;51.456;7.248;2022-09-09T13:34:31;19.00;99.90
2935;DHT22;2462;51.456;7.248;2022-09-09T13:37:06;19.00;99.90
2935;DHT22;2462;51.456;7.248;2022-09-09T13:39:37;19.00;99.90
2935;DHT22;2462;51.456;7.248;2022-09-09T13:42:04;18.90;99.90
2935;DHT22;2462;51.456;7.248;2022-09-09T13:44:39;19.00;99.90
2935;DHT22;2462;51.456;7.248;2022-09-09T13:47:18;18.90;99.90
2935;DHT22;2462;51.456;7.248;2022-09-09T13:49:48;18.80;99.90
2935;DHT22;2462;51.456;7.248;2022-09-09T13:52:18;18.80;99.90
2935;DHT22;2462;51.456;7.248;2022-09-09T13:54:51;18.70;99.90
2935;DHT22;2462;51.456;7.248;2022-09-09T13:57:19;18.70;99.90
2935;DHT22;2462;51.456;7.248;2022-09-09T13:59:46;18.70;99.90
2935;DHT22;2462;51.456;7.248;2022-09-09T14:02:11;18.70;99.90
2935;DHT22;2462;51.456;7.248;2022-09-09T14:04:37;18.60;99.90
2935;DHT22;2462;51.456;7.248;2022-09-09T14:07:03;18.70;99.90
2935;DHT22;2462;51.456;7.248;2022-09-09T14:09:28;18.70;99.90
2935;DHT22;2462;51.456;7.248;2022-09-09T14:11:54;18.70;99.90
2935;DHT22;2462;51.456;7.248;2022-09-09T14:14:22;18.70;99.90
2935;DHT22;2462;51.456;7.248;2022-09-09T14:16:48;18.80;99.90
2935;DHT22;2462;51.456;7.248;2022-09-09T14:19:14;18.80;99.90
2935;DHT22;2462;51.456;7.248;2022-09-09T14:21:39;18.90;99.90
2935;DHT22;2462;51.456;7.248;2022-09-09T14:24:05;19.00;99.90
2935;DHT22;2462;51.456;7.248;2022-09-09T14:26:31;19.10;99.90
2935;DHT22;2462;51.456;7.248;2022-09-09T14:28:56;19.10;99.90
2935;DHT22;2462;51.456;7.248;2022-09-09T14:31:23;19.10;99.90
2935;DHT22;2462;51.456;7.248;2022-09-09T14:33:49;19.20;99.90
2935;DHT22;2462;51.456;7.248;2022-09-09T14:36:16;19.20;99.90
2935;DHT22;2462;51.456;7.248;2022-09-09T14:38:41;19.10;99.90
2935;DHT22;2462;51.456;7.248;2022-09-09T14:41:12;19.10;99.90
2935;DHT22;2462;51.456;7.248;2022-09-09T14:43:38;19.10;99.90
2935;DHT22;2462;51.456;7.248;2022-09-09T14:46:06;19.00;99.90
2935;DHT22;2462;51.456;7.248;2022-09-09T14:48:32;19.00;99.90
2935;DHT22;2462;51.456;7.248;2022-09-09T14:53:43;19.00;99.90
2935;DHT22;2462;51.456;7.248;2022-09-09T14:56:17;18.90;99.90
2935;DHT22;2462;51.456;7.248;2022-09-09T14:58:43;18.90;99.90
2935;DHT22;2462;51.456;7.248;2022-09-09T15:01:10;19.00;99.90
2935;DHT22;2462;51.456;7.248;2022-09-09T15:03:37;19.10;99.90
2935;DHT22;2462;51.456;7.248;2022-09-09T15:06:07;19.20;99.90
2935;DHT22;2462;51.456;7.248;2022-09-09T15:08:34;19.20;99.90
2935;DHT22;2462;51.456;7.248;2022-09-09T15:11:02;19.20;99.90
2935;DHT22;2462;51.456;7.248;2022-09-09T15:13:28;19.10;99.90
2935;DHT22;2462;51.456;7.248;2022-09-09T15:15:54;19.10;99.90
2935;DHT22;2462;51.456;7.248;2022-09-09T15:18:20;19.00;99.90
2935;DHT22;2462;51.456;7.248;2022-09-09T15:20:46;19.00;99.90
2935;DHT22;2462;51.456;7.248;2022-09-09T15:23:13;18.90;99.90
2935;DHT22;2462;51.456;7.248;2022-09-09T15:25:49;18.90;99.90
2935;DHT22;2462;51.456;7.248;2022-09-09T15:28:15;18.80;99.90
2935;DHT22;2462;51.456;7.248;2022-09-09T15:30:41;18.80;99.90
2935;DHT22;2462;51.456;7.248;2022-09-09T15:33:10;18.70;99.90
2935;DHT22;2462;51.456;7.248;2022-09-09T15:35:35;18.70;99.90
2935;DHT22;2462;51.456;7.248;2022-09-09T15:38:04;18.70;99.90
2935;DHT22;2462;51.456;7.248;2022-09-09T15:40:32;18.60;99.90
2935;DHT22;2462;51.456;7.248;2022-09-09T15:42:58;18.60;99.90
2935;DHT22;2462;51.456;7.248;2022-09-09T15:45:24;18.50;99.90
2935;DHT22;2462;51.456;7.248;2022-09-09T15:47:50;18.50;99.90
2935;DHT22;2462;51.456;7.248;2022-09-09T15:50:15;18.40;99.90
2935;DHT22;2462;51.456;7.248;2022-09-09T15:52:41;18.40;99.90
2935;DHT22;2462;51.456;7.248;2022-09-09T15:55:07;18.30;99.90
2935;DHT22;2462;51.456;7.248;2022-09-09T15:57:33;18.30;99.90
2935;DHT22;2462;51.456;7.248;2022-09-09T16:00:00;18.30;99.90
2935;DHT22;2462;51.456;7.248;2022-09-09T16:02:27;18.20;99.90
2935;DHT22;2462;51.456;7.248;2022-09-09T16:04:52;18.20;99.90
2935;DHT22;2462;51.456;7.248;2022-09-09T16:07:18;18.20;99.90
2935;DHT22;2462;51.456;7.248;2022-09-09T16:09:43;18.20;99.90
2935;DHT22;2462;51.456;7.248;2022-09-09T16:12:09;18.20;99.90
2935;DHT22;2462;51.456;7.248;2022-09-09T16:14:35;18.10;99.90
2935;DHT22;2462;51.456;7.248;2022-09-09T16:17:02;18.10;99.90
2935;DHT22;2462;51.456;7.248;2022-09-09T16:19:28;18.10;99.90
2935;DHT22;2462;51.456;7.248;2022-09-09T16:21:53;18.10;99.90
2935;DHT22;2462;51.456;7.248;2022-09-09T16:24:20;18.10;99.90
2935;DHT22;2462;51.456;7.248;2022-09-09T16:26:47;18.00;99.90
2935;DHT22;2462;51.456;7.248;2022-09-09T16:29:14;18.00;99.90
2935;DHT22;2462;51.456;7.248;2022-09-09T16:31:41;18.00;99.90
2935;DHT22;2462;51.456;7.248;2022-09-09T16:34:07;18.00;99.90
2935;DHT22;2462;51.456;7.248;2022-09-09T16:36:35;18.10;99.90
2935;DHT22;2462;51.456;7.248;2022-09-09T16:39:04;18.00;99.90
2935;DHT22;2462;51.456;7.248;2022-09-09T16:41:31;18.00;99.90
2935;DHT22;2462;51.456;7.248;2022-09-09T16:44:01;18.00;99.90
2935;DHT22;2462;51.456;7.248;2022-09-09T16:46:28;18.00;99.90
2935;DHT22;2462;51.456;7.248;2022-09-09T16:48:56;18.00;99.90
2935;DHT22;2462;51.456;7.248;2022-09-09T16:51:27;17.90;99.90
2935;DHT22;2462;51.456;7.248;2022-09-09T16:53:53;17.90;99.90
2935;DHT22;2462;51.456;7.248;2022-09-09T16:56:24;17.90;99.90
2935;DHT22;2462;51.456;7.248;2022-09-09T16:58:58;17.90;99.90
2935;DHT22;2462;51.456;7.248;2022-09-09T17:01:25;17.90;99.90
2935;DHT22;2462;51.456;7.248;2022-09-09T17:03:59;17.90;99.90
2935;DHT22;2462;51.456;7.248;2022-09-09T17:06:26;17.90;99.90
2935;DHT22;2462;51.456;7.248;2022-09-09T17:09:00;17.80;99.90
2935;DHT22;2462;51.456;7.248;2022-09-09T17:11:27;17.80;99.90
2935;DHT22;2462;51.456;7.248;2022-09-09T17:13:54;17.80;99.90
2935;DHT22;2462;51.456;7.248;2022-09-09T17:16:21;17.80;99.90
2935;DHT22;2462;51.456;7.248;2022-09-09T17:18:48;17.80;99.90
2935;DHT22;2462;51.456;7.248;2022-09-09T17:21:17;17.70;99.90
2935;DHT22;2462;51.456;7.248;2022-09-09T17:23:43;17.70;99.90
2935;DHT22;2462;51.456;7.248;2022-09-09T17:26:12;17.70;99.90
2935;DHT22;2462;51.456;7.248;2022-09-09T17:28:39;17.70;99.90
2935;DHT22;2462;51.456;7.248;2022-09-09T17:31:06;17.70;99.90
2935;DHT22;2462;51.456;7.248;2022-09-09T17:33:33;17.60;99.90
2935;DHT22;2462;51.456;7.248;2022-09-09T17:36:01;17.60;99.90
2935;DHT22;2462;51.456;7.248;2022-09-09T17:38:28;17.60;99.90
2935;DHT22;2462;51.456;7.248;2022-09-09T17:41:08;17.60;99.90
2935;DHT22;2462;51.456;7.248;2022-09-09T17:43:34;17.60;99.90
2935;DHT22;2462;51.456;7.248;2022-09-09T17:46:12;17.60;99.90
2935;DHT22;2462;51.456;7.248;2022-09-09T17:48:40;17.50;99.90
2935;DHT22;2462;51.456;7.248;2022-09-09T17:51:07;17.50;99.90
2935;DHT22;2462;51.456;7.248;2022-09-09T17:53:41;17.50;99.90
2935;DHT22;2462;51.456;7.248;2022-09-09T17:56:09;17.50;99.90
2935;DHT22;2462;51.456;7.248;2022-09-09T17:58:35;17.50;99.90
2935;DHT22;2462;51.456;7.248;2022-09-09T18:01:19;17.50;99.90
2935;DHT22;2462;51.456;7.248;2022-09-09T18:03:46;17.40;99.90
2935;DHT22;2462;51.456;7.248;2022-09-09T18:06:20;17.40;99.90
2935;DHT22;2462;51.456;7.248;2022-09-09T18:08:53;17.40;99.90
2935;DHT22;2462;51.456;7.248;2022-09-09T18:11:21;17.40;99.90
2935;DHT22;2462;51.456;7.248;2022-09-09T18:13:51;17.40;99.90
2935;DHT22;2462;51.456;7.248;2022-09-09T18:16:17;17.40;99.90
2935;DHT22;2462;51.456;7.248;2022-09-09T18:18:44;17.40;99.90
2935;DHT22;2462;51.456;7.248;2022-09-09T18:21:10;17.40;99.90
2935;DHT22;2462;51.456;7.248;2022-09-09T18:23:38;17.30;99.90
2935;DHT22;2462;51.456;7.248;2022-09-09T18:26:08;17.30;99.90
2935;DHT22;2462;51.456;7.248;2022-09-09T18:28:35;17.30;99.90
2935;DHT22;2462;51.456;7.248;2022-09-09T18:31:13;17.30;99.90
2935;DHT22;2462;51.456;7.248;2022-09-09T18:33:42;17.30;99.90
2935;DHT22;2462;51.456;7.248;2022-09-09T18:36:13;17.30;99.90
2935;DHT22;2462;51.456;7.248;2022-09-09T18:38:39;17.30;99.90
2935;DHT22;2462;51.456;7.248;2022-09-09T18:43:46;17.20;99.90
2935;DHT22;2462;51.456;7.248;2022-09-09T18:46:12;17.30;99.90
2935;DHT22;2462;51.456;7.248;2022-09-09T18:48:38;17.30;99.90
2935;DHT22;2462;51.456;7.248;2022-09-09T18:51:08;17.20;99.90
2935;DHT22;2462;51.456;7.248;2022-09-09T18:53:35;17.30;99.90
2935;DHT22;2462;51.456;7.248;2022-09-09T18:56:07;17.30;99.90
2935;DHT22;2462;51.456;7.248;2022-09-09T18:58:33;17.30;99.90